Time;durP1;ratioP1;P1;durP2;ratioP2;P2;SDS_P1;SDS_P2;PMS_P1;PMS_P2;Temp;Humidity;BMP_temperature;BMP_pressure;BME280_temperature;BME280_humidity;BME280_pressure;Samples;Min_cycle;Max_cycle;Signal;HPM_P1;HPM_P2
2021/11/19 00:01:56;;;;;;;20.27;10.40;;;11.70;99.90;;;;;;5034548;28;20093;-72
2021/11/19 00:04:23;;;;;;;20.77;11.00;;;11.80;99.90;;;;;;5034461;28;20045;-76
2021/11/19 00:06:50;;;;;;;20.38;11.02;;;11.80;99.90;;;;;;5034472;28;20099;-75
2021/11/19 00:09:15;;;;;;;22.33;11.45;;;11.60;99.90;;;;;;5034449;28;20048;-74
2021/11/19 00:11:43;;;;;;;24.65;11.75;;;11.60;99.90;;;;;;5034371;28;20475;-74
2021/11/19 00:14:09;;;;;;;20.58;11.15;;;11.70;99.90;;;;;;5034318;28;20025;-76
2021/11/19 00:16:37;;;;;;;21.02;10.93;;;11.80;99.90;;;;;;5034291;28;20064;-73
2021/11/19 00:19:03;;;;;;;28.13;13.48;;;11.90;99.90;;;;;;5034220;28;20049;-74
2021/11/19 00:21:31;;;;;;;32.35;20.45;;;11.70;99.90;;;;;;5034203;28;20035;-77
2021/11/19 00:23:57;;;;;;;24.23;12.00;;;11.50;99.90;;;;;;5034612;28;20028;-74
2021/11/19 00:26:24;;;;;;;25.38;13.15;;;11.50;99.90;;;;;;5034357;28;20029;-74
2021/11/19 00:28:51;;;;;;;21.17;11.63;;;11.70;99.90;;;;;;5034001;28;20104;-73
2021/11/19 00:31:17;;;;;;;24.33;14.27;;;11.80;99.90;;;;;;5034556;28;20032;-76
2021/11/19 00:33:44;;;;;;;26.05;12.65;;;11.70;99.90;;;;;;5033896;28;20534;-75
2021/11/19 00:36:13;;;;;;;21.20;12.20;;;11.70;99.90;;;;;;5033906;28;20403;-73
2021/11/19 00:38:40;;;;;;;16.13;10.50;;;11.80;99.90;;;;;;5033894;28;20108;-73
2021/11/19 00:41:08;;;;;;;24.25;12.10;;;11.80;99.90;;;;;;5032921;28;20446;-74
2021/11/19 00:43:35;;;;;;;19.23;11.95;;;11.80;99.90;;;;;;5034085;28;20033;-74
2021/11/19 00:46:01;;;;;;;20.25;13.40;;;11.80;99.90;;;;;;5034005;28;20056;-73
2021/11/19 00:48:30;;;;;;;24.40;13.30;;;11.80;99.90;;;;;;5033765;28;20032;-74
2021/11/19 00:50:58;;;;;;;20.63;11.57;;;11.70;99.90;;;;;;5034230;28;20045;-76
2021/11/19 00:53:24;;;;;;;21.42;11.95;;;11.80;99.90;;;;;;5033435;28;20044;-74
2021/11/19 00:55:50;;;;;;;19.23;11.70;;;11.70;99.90;;;;;;5033392;28;20516;-72
2021/11/19 00:58:18;;;;;;;19.85;12.18;;;11.80;99.90;;;;;;5033529;28;20501;-75
2021/11/19 01:00:52;;;;;;;24.98;12.48;;;11.90;99.90;;;;;;5015786;28;20037;-74
2021/11/19 01:03:21;;;;;;;22.85;11.77;;;11.90;99.90;;;;;;5033787;28;20072;-74
2021/11/19 01:05:47;;;;;;;24.42;12.18;;;11.80;99.90;;;;;;5033332;28;20095;-72
2021/11/19 01:08:13;;;;;;;21.75;12.32;;;11.60;99.90;;;;;;5033926;28;20033;-74
2021/11/19 01:10:40;;;;;;;21.42;10.65;;;11.70;99.90;;;;;;5033411;28;20022;-74
2021/11/19 01:13:08;;;;;;;18.55;10.20;;;11.80;99.90;;;;;;5033343;28;20025;-72
2021/11/19 01:15:43;;;;;;;17.70;9.85;;;11.80;99.90;;;;;;5033326;28;20029;-74
2021/11/19 01:18:22;;;;;;;16.05;9.68;;;11.90;99.90;;;;;;5033573;28;20025;-72
2021/11/19 01:20:53;;;;;;;19.90;10.45;;;11.90;99.90;;;;;;5033536;28;20036;-72
2021/11/19 01:23:21;;;;;;;20.33;11.15;;;12.00;99.90;;;;;;5033186;28;20036;-74
2021/11/19 01:26:00;;;;;;;21.15;10.50;;;11.90;99.90;;;;;;5033375;28;20390;-75
2021/11/19 01:28:26;;;;;;;23.35;12.18;;;12.00;99.90;;;;;;5033183;28;20368;-74
2021/11/19 01:30:57;;;;;;;19.58;11.02;;;11.90;99.90;;;;;;5033379;28;20466;-73
2021/11/19 01:33:24;;;;;;;21.38;10.60;;;11.90;99.90;;;;;;5033131;28;20483;-74
2021/11/19 01:35:50;;;;;;;17.77;10.35;;;11.90;99.90;;;;;;5033066;28;20384;-76
2021/11/19 01:38:16;;;;;;;22.45;9.98;;;11.90;99.90;;;;;;5033089;28;20048;-76
2021/11/19 01:40:51;;;;;;;25.45;11.07;;;12.00;99.90;;;;;;5033082;28;20033;-77
2021/11/19 01:43:17;;;;;;;22.13;10.50;;;12.00;99.90;;;;;;5033348;28;20033;-75
2021/11/19 01:45:47;;;;;;;26.27;13.13;;;12.00;99.90;;;;;;5032934;28;20104;-74
2021/11/19 01:48:15;;;;;;;20.90;12.40;;;11.90;99.90;;;;;;5033035;28;20025;-74
2021/11/19 01:50:53;;;;;;;19.70;11.13;;;11.60;99.90;;;;;;5032952;28;20410;-75
2021/11/19 01:53:35;;;;;;;20.60;12.73;;;11.70;99.90;;;;;;5037231;28;20017;-76
2021/11/19 01:56:15;;;;;;;19.88;11.73;;;11.70;99.90;;;;;;5018891;28;20087;-75
2021/11/19 01:58:45;;;;;;;21.13;11.30;;;11.50;99.90;;;;;;5037256;28;20083;-75
2021/11/19 02:01:19;;;;;;;28.77;12.30;;;11.40;99.90;;;;;;5037461;28;20033;-73
2021/11/19 02:03:49;;;;;;;23.67;11.82;;;11.60;99.90;;;;;;5037386;28;20104;-76
2021/11/19 02:06:16;;;;;;;22.73;13.07;;;11.60;99.90;;;;;;5037360;28;20037;-74
2021/11/19 02:08:45;;;;;;;17.83;10.88;;;11.80;99.90;;;;;;5036999;28;20018;-74
2021/11/19 02:11:26;;;;;;;19.90;10.35;;;11.80;99.90;;;;;;5036626;28;20021;-75
2021/11/19 02:14:26;;;;;;;18.33;10.73;;;11.90;99.90;;;;;;5036954;28;20030;-76
2021/11/19 02:16:57;;;;;;;20.38;11.05;;;12.00;99.90;;;;;;5037163;28;20018;-76
2021/11/19 02:19:30;;;;;;;16.30;10.00;;;12.00;99.90;;;;;;5036778;28;20033;-72
2021/11/19 02:22:04;;;;;;;20.52;11.52;;;11.70;99.90;;;;;;5036657;28;20071;-73
2021/11/19 02:24:38;;;;;;;18.90;10.38;;;11.40;99.90;;;;;;5036606;28;20036;-75
2021/11/19 02:27:13;;;;;;;30.90;11.85;;;11.60;99.90;;;;;;5036669;28;20104;-76
2021/11/19 02:29:48;;;;;;;19.73;11.25;;;11.70;99.90;;;;;;5018306;28;20032;-75
2021/11/19 02:32:19;;;;;;;19.92;11.00;;;11.90;99.90;;;;;;5036593;28;20105;-75
2021/11/19 02:34:45;;;;;;;25.25;12.48;;;11.80;99.90;;;;;;5036530;28;20480;-72
2021/11/19 02:37:40;;;;;;;17.42;11.57;;;11.50;99.90;;;;;;5036200;28;20021;-77
2021/11/19 02:40:15;;;;;;;24.15;11.90;;;11.40;99.90;;;;;;5025379;28;20471;-75
2021/11/19 02:42:51;;;;;;;18.13;11.68;;;11.40;99.90;;;;;;5036346;28;20560;-76
2021/11/19 02:45:32;;;;;;;21.77;12.05;;;11.30;99.90;;;;;;5036257;28;20121;-73
2021/11/19 02:47:58;;;;;;;23.65;13.35;;;11.20;99.90;;;;;;5036308;28;20025;-74
2021/11/19 02:50:25;;;;;;;27.92;13.63;;;11.20;99.90;;;;;;5035975;28;20052;-75
2021/11/19 02:52:55;;;;;;;27.30;15.73;;;11.40;99.90;;;;;;5035863;28;20028;-77
2021/11/19 02:55:34;;;;;;;31.08;18.10;;;11.50;99.90;;;;;;5035624;28;20068;-75
2021/11/19 02:58:00;;;;;;;25.27;15.23;;;11.40;99.90;;;;;;5035871;28;20029;-75
2021/11/19 03:00:34;;;;;;;33.55;16.80;;;11.40;99.90;;;;;;5035773;28;20036;-75
2021/11/19 03:03:00;;;;;;;31.25;18.17;;;11.50;99.90;;;;;;5016473;28;20029;-74
2021/11/19 03:05:28;;;;;;;29.25;17.30;;;11.60;99.90;;;;;;5035853;28;20037;-73
2021/11/19 03:07:54;;;;;;;38.65;21.73;;;11.60;99.90;;;;;;5035619;28;20032;-75
2021/11/19 03:10:22;;;;;;;38.72;21.42;;;11.50;99.90;;;;;;5035796;28;20112;-74
2021/11/19 03:12:49;;;;;;;42.75;24.55;;;11.60;99.90;;;;;;5035759;28;20025;-74
2021/11/19 03:15:21;;;;;;;37.97;21.65;;;11.60;99.90;;;;;;5035503;28;20024;-75
2021/11/19 03:17:47;;;;;;;39.30;21.75;;;11.60;99.90;;;;;;5035467;28;20021;-74
2021/11/19 03:20:15;;;;;;;38.67;22.25;;;11.70;99.90;;;;;;5035359;28;20380;-73
2021/11/19 03:22:41;;;;;;;36.47;22.40;;;11.70;99.90;;;;;;5035303;28;20518;-75
2021/11/19 03:25:10;;;;;;;38.00;24.08;;;11.90;99.90;;;;;;5035217;28;20029;-72
2021/11/19 03:27:36;;;;;;;41.75;21.95;;;11.70;99.90;;;;;;5035488;28;20021;-75
2021/11/19 03:30:04;;;;;;;45.80;21.70;;;11.70;99.90;;;;;;5034858;28;20105;-74
2021/11/19 03:32:31;;;;;;;43.10;25.00;;;11.80;99.90;;;;;;5035048;28;20013;-76
2021/11/19 03:34:58;;;;;;;37.10;22.75;;;11.70;99.90;;;;;;5017382;28;20029;-74
2021/11/19 03:37:24;;;;;;;39.63;21.85;;;11.80;99.90;;;;;;5035074;28;20053;-76
2021/11/19 03:39:50;;;;;;;32.63;21.05;;;11.90;99.90;;;;;;5035037;28;20029;-75
2021/11/19 03:42:18;;;;;;;32.47;19.00;;;11.90;99.90;;;;;;5035220;28;20025;-75
2021/11/19 03:45:05;;;;;;;36.45;21.50;;;12.00;99.90;;;;;;5034838;28;20025;-75
2021/11/19 03:47:35;;;;;;;33.33;19.20;;;11.90;99.90;;;;;;5035472;28;20013;-76
2021/11/19 03:50:07;;;;;;;31.13;18.50;;;11.70;99.90;;;;;;5034833;28;20499;-72
2021/11/19 03:52:37;;;;;;;34.88;19.83;;;11.50;99.90;;;;;;5035004;28;20026;-74
2021/11/19 03:55:09;;;;;;;32.42;19.13;;;11.70;99.90;;;;;;5035095;28;20033;-74
2021/11/19 03:57:35;;;;;;;30.10;18.08;;;11.80;99.90;;;;;;5034985;28;20017;-76
2021/11/19 04:00:04;;;;;;;31.70;18.73;;;11.70;99.90;;;;;;5034945;28;20444;-76
2021/11/19 04:02:30;;;;;;;28.90;20.40;;;11.50;99.90;;;;;;5035190;28;20037;-72
2021/11/19 04:04:56;;;;;;;32.95;19.33;;;11.30;99.90;;;;;;5034988;28;20033;-76
2021/11/19 04:07:22;;;;;;;36.17;21.15;;;11.40;99.90;;;;;;5034755;28;20024;-74
2021/11/19 04:09:49;;;;;;;34.72;21.48;;;11.60;99.90;;;;;;5034419;28;20030;-74
2021/11/19 04:12:17;;;;;;;33.40;19.70;;;11.60;99.90;;;;;;5034376;28;20025;-72
2021/11/19 04:14:43;;;;;;;33.55;17.67;;;11.70;99.90;;;;;;5034361;28;20028;-75
2021/11/19 04:17:09;;;;;;;30.67;16.67;;;11.60;99.90;;;;;;5034252;28;20018;-75
2021/11/19 04:19:35;;;;;;;37.20;18.83;;;11.60;99.90;;;;;;5034230;28;20030;-74
2021/11/19 04:22:06;;;;;;;32.58;17.98;;;11.50;99.90;;;;;;5034217;28;20022;-73
2021/11/19 04:24:38;;;;;;;36.70;21.92;;;11.40;99.90;;;;;;5034689;28;20025;-73
2021/11/19 04:27:06;;;;;;;30.15;18.40;;;11.40;99.90;;;;;;5034431;28;20032;-74
2021/11/19 04:29:32;;;;;;;33.60;18.35;;;11.50;99.90;;;;;;5034611;28;20029;-74
2021/11/19 04:31:58;;;;;;;26.35;16.77;;;11.60;99.90;;;;;;5034282;28;20022;-76
2021/11/19 04:34:24;;;;;;;28.55;16.73;;;11.60;99.90;;;;;;5034252;28;20029;-74
2021/11/19 04:36:50;;;;;;;31.05;16.58;;;11.60;99.90;;;;;;5033962;28;20025;-74
2021/11/19 04:39:16;;;;;;;23.27;13.73;;;11.60;99.90;;;;;;5034409;28;20025;-74
2021/11/19 04:41:42;;;;;;;24.55;14.25;;;11.50;99.90;;;;;;5033847;28;20049;-73
2021/11/19 04:44:09;;;;;;;26.48;13.27;;;11.50;99.90;;;;;;5033997;28;20108;-75
2021/11/19 04:46:35;;;;;;;22.13;12.45;;;11.50;99.90;;;;;;5034038;28;20483;-75
2021/11/19 04:49:01;;;;;;;25.35;13.82;;;11.40;99.90;;;;;;5034024;28;20052;-74
2021/11/19 04:51:34;;;;;;;28.40;14.18;;;11.40;99.90;;;;;;5033713;28;20382;-74
2021/11/19 04:54:00;;;;;;;26.90;15.38;;;11.30;99.90;;;;;;5033887;28;20017;-75
2021/11/19 04:56:26;;;;;;;24.77;12.77;;;11.20;99.90;;;;;;5033439;28;20046;-73
2021/11/19 04:58:52;;;;;;;29.50;14.20;;;11.40;99.90;;;;;;5033533;28;20029;-75
2021/11/19 05:01:22;;;;;;;27.60;14.88;;;11.40;99.90;;;;;;5033516;28;20017;-76
2021/11/19 05:03:48;;;;;;;23.88;14.48;;;11.30;99.90;;;;;;5033847;28;20013;-75
2021/11/19 05:06:15;;;;;;;28.00;15.65;;;11.40;99.90;;;;;;5033638;28;20041;-74
2021/11/19 05:08:41;;;;;;;23.60;14.13;;;11.40;99.90;;;;;;5033422;28;20021;-73
2021/11/19 05:11:11;;;;;;;26.58;14.70;;;11.50;99.90;;;;;;5033636;28;20021;-75
2021/11/19 05:13:39;;;;;;;24.73;14.40;;;11.60;99.90;;;;;;5034157;28;20025;-77
2021/11/19 05:16:07;;;;;;;28.70;14.73;;;11.40;99.90;;;;;;5033321;28;20029;-74
2021/11/19 05:18:33;;;;;;;25.85;14.18;;;11.10;99.90;;;;;;5033567;28;20033;-75
2021/11/19 05:20:59;;;;;;;22.48;14.30;;;11.20;99.90;;;;;;5033275;28;20483;-73
2021/11/19 05:23:26;;;;;;;21.48;14.18;;;11.30;99.90;;;;;;5033212;28;20025;-75
2021/11/19 05:25:53;;;;;;;22.15;14.82;;;11.30;99.90;;;;;;5032887;28;20470;-73
2021/11/19 05:28:21;;;;;;;22.58;14.13;;;11.30;99.90;;;;;;5033433;28;20029;-74
2021/11/19 05:30:48;;;;;;;28.98;16.98;;;11.10;99.90;;;;;;5033436;28;20479;-76
2021/11/19 05:33:17;;;;;;;24.67;16.00;;;11.00;99.90;;;;;;5033151;28;20025;-75
2021/11/19 05:35:43;;;;;;;28.65;15.95;;;11.00;99.90;;;;;;5015450;28;20075;-74
2021/11/19 05:38:10;;;;;;;29.52;14.57;;;11.00;99.90;;;;;;5033142;28;20019;-74
2021/11/19 05:40:35;;;;;;;26.27;16.10;;;10.70;99.90;;;;;;5033085;28;20025;-75
2021/11/19 05:43:02;;;;;;;26.08;15.48;;;10.60;99.90;;;;;;5033089;28;20502;-74
2021/11/19 05:45:30;;;;;;;27.65;14.40;;;10.80;99.90;;;;;;5033263;28;20360;-73
2021/11/19 05:47:56;;;;;;;24.33;13.75;;;10.90;99.90;;;;;;5033014;28;20486;-74
2021/11/19 05:50:24;;;;;;;22.23;13.90;;;11.00;99.90;;;;;;5032963;28;20029;-74
2021/11/19 05:52:52;;;;;;;27.08;16.48;;;11.00;99.90;;;;;;5033062;28;20502;-75
2021/11/19 05:55:20;;;;;;;25.60;15.07;;;10.90;99.90;;;;;;5032760;28;20065;-73
2021/11/19 05:57:46;;;;;;;21.30;15.18;;;10.80;99.90;;;;;;5033217;28;20028;-72
2021/11/19 06:00:17;;;;;;;23.20;13.15;;;10.80;99.90;;;;;;5032945;28;20021;-73
2021/11/19 06:02:42;;;;;;;26.05;12.00;;;10.80;99.90;;;;;;5033169;28;20037;-74
2021/11/19 06:05:10;;;;;;;23.25;12.68;;;10.90;99.90;;;;;;5032802;28;20041;-73
2021/11/19 06:07:36;;;;;;;20.33;11.82;;;10.90;99.90;;;;;;5033183;28;20440;-72
2021/11/19 06:10:04;;;;;;;25.55;13.05;;;10.80;99.90;;;;;;5032840;28;20096;-72
2021/11/19 06:12:34;;;;;;;22.83;12.07;;;10.80;99.90;;;;;;5032871;28;20010;-74
2021/11/19 06:15:04;;;;;;;30.75;14.32;;;10.70;99.90;;;;;;5032805;28;20030;-72
2021/11/19 06:17:37;;;;;;;26.42;13.38;;;10.80;99.90;;;;;;5033077;28;20083;-73
2021/11/19 06:20:18;;;;;;;26.30;14.95;;;10.70;99.90;;;;;;5033347;28;20112;-71
2021/11/19 06:22:48;;;;;;;21.48;12.27;;;10.70;99.90;;;;;;5033268;28;20041;-73
2021/11/19 06:25:19;;;;;;;20.20;11.68;;;10.60;99.90;;;;;;5032625;28;20029;-74
2021/11/19 06:27:44;;;;;;;18.33;11.57;;;10.50;99.90;;;;;;5032727;28;20029;-74
2021/11/19 06:30:14;;;;;;;19.83;11.55;;;10.60;99.90;;;;;;5032642;28;20148;-72
2021/11/19 06:32:40;;;;;;;26.83;13.38;;;10.60;99.90;;;;;;5032575;28;20022;-74
2021/11/19 06:35:06;;;;;;;27.13;13.20;;;10.50;99.90;;;;;;5032655;28;20036;-74
2021/11/19 06:37:32;;;;;;;19.25;11.20;;;10.50;99.90;;;;;;5033874;28;20102;-72
2021/11/19 06:39:58;;;;;;;18.80;11.07;;;10.60;99.90;;;;;;5036189;28;20029;-75
2021/11/19 06:42:24;;;;;;;25.15;12.70;;;10.50;99.90;;;;;;5036207;28;20029;-72
2021/11/19 06:44:49;;;;;;;26.25;12.18;;;10.40;99.90;;;;;;5036094;28;20026;-73
2021/11/19 06:47:17;;;;;;;29.50;14.40;;;10.50;99.90;;;;;;5036029;28;20438;-72
2021/11/19 06:49:44;;;;;;;22.90;12.57;;;10.40;99.90;;;;;;5035992;28;20018;-72
2021/11/19 06:52:09;;;;;;;23.13;12.63;;;10.20;99.90;;;;;;5035884;28;20049;-74
2021/11/19 06:54:36;;;;;;;21.00;12.45;;;10.20;99.90;;;;;;5035978;28;20030;-74
2021/11/19 06:57:02;;;;;;;22.58;11.48;;;10.10;99.90;;;;;;5035464;28;20049;-71
2021/11/19 06:59:28;;;;;;;21.63;12.45;;;9.80;99.90;;;;;;5035803;28;20113;-74
2021/11/19 07:01:54;;;;;;;25.30;13.57;;;9.60;99.90;;;;;;5035835;28;20056;-75
2021/11/19 07:04:20;;;;;;;23.10;11.57;;;9.50;99.90;;;;;;5035942;28;20033;-72
2021/11/19 07:06:46;;;;;;;22.98;11.38;;;9.80;99.90;;;;;;5035683;28;20574;-72
2021/11/19 07:09:14;;;;;;;25.33;12.15;;;10.10;99.90;;;;;;5035964;28;20100;-74
2021/11/19 07:11:40;;;;;;;21.52;13.07;;;10.00;99.90;;;;;;5035676;28;20558;-74
2021/11/19 07:14:07;;;;;;;21.92;13.93;;;9.90;99.90;;;;;;5035543;28;20025;-72
2021/11/19 07:16:34;;;;;;;33.17;13.50;;;9.90;99.90;;;;;;5035803;28;20017;-72
2021/11/19 07:19:00;;;;;;;22.20;13.85;;;9.90;99.90;;;;;;5035529;28;20030;-73
2021/11/19 07:21:28;;;;;;;19.48;11.63;;;10.00;99.90;;;;;;5035462;28;20014;-72
2021/11/19 07:23:54;;;;;;;22.90;13.52;;;9.90;99.90;;;;;;5035717;28;20426;-72
2021/11/19 07:26:23;;;;;;;20.92;12.48;;;9.90;99.90;;;;;;5035279;28;20025;-73
2021/11/19 07:28:49;;;;;;;16.88;10.50;;;9.80;99.90;;;;;;5035599;28;20025;-74
2021/11/19 07:31:17;;;;;;;25.13;11.98;;;9.70;99.90;;;;;;5035234;28;20018;-70
2021/11/19 07:33:43;;;;;;;18.13;11.18;;;9.80;99.90;;;;;;5035148;28;20079;-72
2021/11/19 07:36:11;;;;;;;24.52;12.57;;;9.70;99.90;;;;;;5035410;28;20025;-70
2021/11/19 07:38:40;;;;;;;23.65;14.10;;;9.80;99.90;;;;;;5035660;28;20021;-73
2021/11/19 07:41:07;;;;;;;30.77;21.20;;;9.70;99.90;;;;;;5017070;28;20025;-72
2021/11/19 07:43:37;;;;;;;26.50;19.25;;;9.80;99.90;;;;;;5034980;28;20033;-70
2021/11/19 07:46:03;;;;;;;37.40;18.77;;;10.00;99.90;;;;;;5035171;28;20025;-72
2021/11/19 07:48:32;;;;;;;28.48;15.93;;;10.00;99.90;;;;;;5034845;28;20102;-71
2021/11/19 07:51:02;;;;;;;26.20;15.75;;;9.70;99.90;;;;;;5034385;28;20017;-71
2021/11/19 07:53:28;;;;;;;28.60;16.35;;;9.40;99.90;;;;;;5034716;28;20436;-71
2021/11/19 07:55:56;;;;;;;25.73;14.23;;;9.20;99.90;;;;;;5016770;28;20434;-71
2021/11/19 07:58:24;;;;;;;21.95;13.38;;;9.10;99.90;;;;;;5016933;28;20025;-70
2021/11/19 08:00:50;;;;;;;23.25;12.05;;;9.00;99.90;;;;;;5034634;28;20507;-71
2021/11/19 08:03:17;;;;;;;21.25;12.65;;;9.00;99.90;;;;;;5034584;28;20026;-71
2021/11/19 08:05:49;;;;;;;18.65;12.30;;;9.00;99.90;;;;;;5034757;28;20391;-71
2021/11/19 08:08:15;;;;;;;19.98;13.20;;;9.00;99.90;;;;;;5034564;28;20026;-71
2021/11/19 08:10:41;;;;;;;20.67;12.48;;;9.10;99.90;;;;;;5034977;28;20025;-69
2021/11/19 08:13:08;;;;;;;26.30;12.45;;;9.00;99.90;;;;;;5034393;28;20376;-71
2021/11/19 08:15:34;;;;;;;17.98;11.35;;;9.20;99.90;;;;;;5034332;28;20026;-70
2021/11/19 08:18:01;;;;;;;17.60;11.10;;;9.30;99.90;;;;;;5034811;28;20104;-71
2021/11/19 08:20:36;;;;;;;17.88;10.45;;;9.30;99.90;;;;;;5034254;28;20079;-71
2021/11/19 08:23:04;;;;;;;17.52;11.43;;;9.50;99.90;;;;;;5034258;28;20026;-69
2021/11/19 08:25:29;;;;;;;19.52;10.48;;;9.60;99.90;;;;;;5034111;28;20037;-70
2021/11/19 08:27:56;;;;;;;21.17;12.77;;;9.70;99.90;;;;;;5034420;28;20027;-72
2021/11/19 08:30:31;;;;;;;23.08;13.73;;;9.70;99.90;;;;;;5034093;28;20428;-73
2021/11/19 08:32:58;;;;;;;28.60;17.98;;;9.80;99.90;;;;;;5034047;28;20029;-70
2021/11/19 08:35:25;;;;;;;32.85;20.60;;;9.90;99.90;;;;;;5033933;28;20104;-71
2021/11/19 08:37:52;;;;;;;31.90;19.02;;;9.90;99.90;;;;;;5033946;28;20460;-71
2021/11/19 08:40:18;;;;;;;34.05;23.40;;;9.90;99.90;;;;;;5033930;28;20104;-71
2021/11/19 08:42:45;;;;;;;30.77;19.95;;;9.80;99.90;;;;;;5033863;28;20029;-70
2021/11/19 08:45:15;;;;;;;34.85;20.70;;;9.90;99.90;;;;;;5033809;28;20105;-72
2021/11/19 08:47:42;;;;;;;23.08;14.60;;;9.90;99.90;;;;;;5015876;28;20071;-71
2021/11/19 08:50:09;;;;;;;32.95;20.95;;;9.80;99.90;;;;;;5033747;28;20025;-73
2021/11/19 08:52:35;;;;;;;45.80;31.08;;;9.80;99.90;;;;;;5033668;28;20033;-73
2021/11/19 08:55:03;;;;;;;44.67;29.48;;;9.70;99.90;;;;;;5033457;28;20093;-73
2021/11/19 08:57:29;;;;;;;50.22;33.20;;;9.70;99.90;;;;;;5033900;28;20096;-73
2021/11/19 08:59:55;;;;;;;28.55;22.33;;;9.50;99.90;;;;;;5033586;28;20037;-73
2021/11/19 09:02:25;;;;;;;31.10;17.08;;;9.60;99.90;;;;;;5032630;28;20029;-71
2021/11/19 09:04:51;;;;;;;26.33;16.65;;;9.70;99.90;;;;;;5033729;28;20040;-72
2021/11/19 09:07:17;;;;;;;24.65;16.48;;;10.00;99.90;;;;;;5033446;28;20021;-74
2021/11/19 09:09:45;;;;;;;27.92;16.75;;;10.10;99.90;;;;;;5033477;28;20028;-74
2021/11/19 09:12:11;;;;;;;26.27;16.05;;;10.20;99.90;;;;;;5034030;28;20017;-72
2021/11/19 09:14:37;;;;;;;21.50;15.13;;;10.40;99.90;;;;;;5033616;28;20065;-73
2021/11/19 09:17:32;;;;;;;28.15;15.95;;;10.50;99.90;;;;;;5033444;28;20101;-72
2021/11/19 09:20:25;;;;;;;23.65;14.77;;;10.70;99.90;;;;;;5033662;28;20021;-73
2021/11/19 09:23:07;;;;;;;21.30;13.38;;;11.00;99.90;;;;;;5033504;28;20497;-74
2021/11/19 09:25:34;;;;;;;21.92;15.05;;;11.20;99.90;;;;;;5033787;28;20026;-74
2021/11/19 09:28:01;;;;;;;20.00;13.25;;;11.20;99.90;;;;;;5033467;28;20391;-72
2021/11/19 09:30:31;;;;;;;23.92;13.57;;;11.50;99.90;;;;;;5033137;28;20080;-73
2021/11/19 09:32:59;;;;;;;21.40;12.88;;;11.70;99.90;;;;;;5033189;28;20025;-71
2021/11/19 09:35:28;;;;;;;25.05;13.50;;;11.70;99.90;;;;;;5033376;28;20022;-70
2021/11/19 09:37:54;;;;;;;20.92;13.45;;;11.70;99.90;;;;;;5033108;28;20068;-72
2021/11/19 09:40:27;;;;;;;18.30;11.40;;;11.70;99.90;;;;;;5033303;28;20483;-71
2021/11/19 09:43:00;;;;;;;19.70;11.68;;;11.70;99.90;;;;;;5033055;28;20457;-70
2021/11/19 09:45:32;;;;;;;21.42;11.25;;;11.60;99.90;;;;;;5033286;28;20028;-71
2021/11/19 09:48:36;;;;;;;22.38;10.70;;;11.60;99.90;;;;;;5033282;28;20479;-71
2021/11/19 09:51:24;;;;;;;21.13;9.45;;;11.60;99.90;;;;;;5033554;28;20013;-71
2021/11/19 09:54:12;;;;;;;22.98;10.38;;;11.80;99.90;;;;;;5032974;28;20080;-71
2021/11/19 09:56:44;;;;;;;14.95;9.18;;;12.00;99.90;;;;;;5014868;28;20053;-72
2021/11/19 09:59:16;;;;;;;20.38;10.07;;;11.90;99.90;;;;;;5033236;28;20057;-71
2021/11/19 10:01:55;;;;;;;16.08;9.23;;;12.00;99.90;;;;;;5033198;28;20028;-72
2021/11/19 10:04:38;;;;;;;19.38;9.85;;;12.00;99.90;;;;;;5033119;28;20029;-71
2021/11/19 10:07:21;;;;;;;15.43;8.52;;;12.00;99.90;;;;;;5033399;28;20032;-70
2021/11/19 10:10:08;;;;;;;24.17;9.32;;;12.10;99.90;;;;;;5032793;28;20022;-70
2021/11/19 10:12:46;;;;;;;16.83;7.30;;;12.10;99.90;;;;;;5034151;28;20022;-73
2021/11/19 10:15:21;;;;;;;18.90;7.65;;;12.20;99.90;;;;;;5036950;28;20087;-72
2021/11/19 10:17:59;;;;;;;12.52;6.78;;;12.20;99.90;;;;;;5036589;28;20030;-72
2021/11/19 10:21:06;;;;;;;16.65;7.90;;;12.20;99.90;;;;;;5037137;28;20034;-71
2021/11/19 10:23:39;;;;;;;23.58;8.57;;;12.30;99.90;;;;;;5036010;28;20160;-73
2021/11/19 10:26:30;;;;;;;19.88;7.43;;;12.30;99.90;;;;;;5036561;28;20034;-70
2021/11/19 10:29:33;;;;;;;16.63;6.03;;;12.30;99.90;;;;;;5036479;28;20549;-69
2021/11/19 10:32:00;;;;;;;14.77;6.30;;;12.30;99.90;;;;;;5036356;28;20388;-71
2021/11/19 10:34:48;;;;;;;14.07;6.13;;;12.20;99.90;;;;;;5036265;28;20071;-72
2021/11/19 10:37:38;;;;;;;16.95;5.80;;;12.20;99.90;;;;;;5036799;28;20037;-73
2021/11/19 10:40:34;;;;;;;14.20;5.53;;;12.20;99.90;;;;;;5036540;28;20033;-71
2021/11/19 10:43:47;;;;;;;16.95;6.07;;;12.40;99.90;;;;;;5036442;28;20391;-72
2021/11/19 10:46:34;;;;;;;13.52;5.57;;;12.50;99.90;;;;;;4982423;28;20116;-72
2021/11/19 10:49:18;;;;;;;14.43;6.35;;;12.40;99.90;;;;;;5036395;28;20036;-75
2021/11/19 10:52:19;;;;;;;15.10;5.57;;;12.40;99.90;;;;;;5036003;28;20100;-72
2021/11/19 10:55:19;;;;;;;15.77;5.93;;;12.40;99.90;;;;;;5012548;28;20487;-70
2021/11/19 10:58:21;;;;;;;13.80;5.97;;;12.30;99.90;;;;;;5036187;28;20037;-71
2021/11/19 11:00:56;;;;;;;10.05;4.90;;;12.20;99.90;;;;;;5036335;28;20029;-69
2021/11/19 11:03:24;;;;;;;15.45;6.63;;;12.20;99.90;;;;;;5035818;28;20029;-69
2021/11/19 11:06:15;;;;;;;14.88;6.13;;;12.20;99.90;;;;;;5035645;28;20017;-70
2021/11/19 11:08:44;;;;;;;17.63;6.93;;;12.20;99.90;;;;;;5036179;28;20068;-70
2021/11/19 11:11:30;;;;;;;15.63;6.78;;;12.20;99.90;;;;;;5035627;28;20025;-75
2021/11/19 11:13:56;;;;;;;16.45;5.75;;;12.20;99.90;;;;;;5035880;28;20021;-73
2021/11/19 11:16:23;;;;;;;14.80;6.30;;;12.20;99.90;;;;;;5035808;28;20036;-72
2021/11/19 11:19:22;;;;;;;21.90;6.90;;;12.20;99.90;;;;;;5035459;28;20475;-69
2021/11/19 11:21:53;;;;;;;17.45;7.25;;;12.10;99.90;;;;;;5035685;28;20021;-70
2021/11/19 11:24:47;;;;;;;18.38;6.15;;;12.20;99.90;;;;;;5034352;28;20123;-73
2021/11/19 11:27:32;;;;;;;16.83;6.90;;;12.10;99.90;;;;;;5012223;28;20415;-70
2021/11/19 11:30:09;;;;;;;17.33;6.13;;;12.10;99.90;;;;;;5035542;28;20439;-70
2021/11/19 11:33:04;;;;;;;14.95;6.30;;;12.10;99.90;;;;;;5035231;28;20032;-71
2021/11/19 11:35:39;;;;;;;15.57;5.53;;;12.20;99.90;;;;;;5035464;28;20026;-71
2021/11/19 11:38:17;;;;;;;16.05;6.38;;;12.20;99.90;;;;;;5035650;28;20033;-71
2021/11/19 11:41:05;;;;;;;17.63;5.40;;;12.20;99.90;;;;;;5017032;28;20402;-71
2021/11/19 11:43:54;;;;;;;15.05;5.53;;;12.20;99.90;;;;;;5017015;28;20063;-74
2021/11/19 11:46:31;;;;;;;16.70;4.60;;;12.30;99.90;;;;;;5035186;28;20555;-72
2021/11/19 11:49:09;;;;;;;15.68;4.60;;;12.20;99.90;;;;;;5016933;28;20039;-70
2021/11/19 11:51:42;;;;;;;14.57;5.03;;;12.30;99.90;;;;;;5035158;28;20022;-71
2021/11/19 11:54:34;;;;;;;16.73;5.03;;;12.30;99.90;;;;;;5035092;28;20025;-72
2021/11/19 11:57:40;;;;;;;15.32;5.50;;;12.40;99.90;;;;;;5034663;28;20064;-74
2021/11/19 12:00:20;;;;;;;16.95;5.32;;;12.40;99.90;;;;;;5005087;28;20096;-73
2021/11/19 12:02:51;;;;;;;12.40;5.45;;;12.40;99.90;;;;;;5035002;28;20028;-71
2021/11/19 12:05:23;;;;;;;15.18;4.72;;;12.50;99.90;;;;;;5034517;28;20087;-73
2021/11/19 12:08:21;;;;;;;15.15;4.78;;;12.40;99.90;;;;;;5034813;28;20045;-72
2021/11/19 12:11:18;;;;;;;16.48;5.57;;;12.30;99.90;;;;;;5035033;28;20033;-70
2021/11/19 12:14:11;;;;;;;11.65;5.35;;;12.40;99.90;;;;;;5035010;28;20082;-72
2021/11/19 12:17:03;;;;;;;12.65;4.93;;;12.30;99.90;;;;;;5034656;28;20025;-71
2021/11/19 12:19:53;;;;;;;14.60;5.13;;;12.40;99.90;;;;;;5001675;28;20033;-71
2021/11/19 12:22:38;;;;;;;19.88;6.97;;;12.40;99.90;;;;;;5034587;28;20057;-71
2021/11/19 12:25:30;;;;;;;14.20;5.20;;;12.50;99.90;;;;;;5034356;28;20117;-72
2021/11/19 12:27:59;;;;;;;17.17;6.00;;;12.50;99.90;;;;;;5034720;28;20459;-71
2021/11/19 12:30:48;;;;;;;16.33;5.70;;;12.50;99.90;;;;;;5034109;28;20018;-70
2021/11/19 12:33:25;;;;;;;10.60;4.90;;;12.40;99.90;;;;;;5034372;28;20646;-69
2021/11/19 12:36:00;;;;;;;15.57;5.50;;;12.50;99.90;;;;;;5034452;28;20025;-72
2021/11/19 12:38:35;;;;;;;15.80;5.63;;;12.50;99.90;;;;;;5033941;28;20041;-70
2021/11/19 12:41:09;;;;;;;17.58;5.68;;;12.60;99.90;;;;;;5015898;28;20034;-74
2021/11/19 12:43:35;;;;;;;14.80;5.95;;;12.60;99.90;;;;;;5034207;28;20443;-73
2021/11/19 12:46:38;;;;;;;21.27;5.57;;;12.60;99.90;;;;;;5033778;28;20104;-72
2021/11/19 12:49:33;;;;;;;13.93;4.75;;;12.50;99.90;;;;;;5034061;28;20391;-71
2021/11/19 12:52:33;;;;;;;14.63;5.53;;;12.60;99.90;;;;;;5034369;28;20026;-71
2021/11/19 12:55:29;;;;;;;16.52;5.63;;;12.70;99.90;;;;;;4996878;28;20117;-71
2021/11/19 12:58:31;;;;;;;15.00;5.25;;;12.70;99.90;;;;;;5033657;28;20100;-72